< < Back
Terminal Aerodrome Forecast


Current Version              Previous Versions:   1  2  3  4  5  6  7  8  9  

Terminal Aerodrome Forecast

721
FTUS44 KOHX 261700
TAFBNA
TAF
KBNA 261720Z 2618/2718 01010KT P6SM SCT030 BKN250
     FM262200 34008KT P6SM OVC015
     FM270500 35010KT P6SM OVC035=

Latest METAR

110
SAUS70 KWBC 270400 RRB
MTRBNA
METAR KBNA 270353Z 36011KT 10SM BKN023 OVC050 M02/M07 A3033 RMK AO2
SLP275 T10221072


USA.gov is the U.S. government's official web portal to all federal, state and local government web resources and services.